sensor_id;sensor_type;location;lat;lon;timestamp;P1;durP1;ratioP1;P2;durP2;ratioP2
28766;SDS011;15921;52.034;20.650;2022-08-25T00:01:17;11.60;;;4.03;;
28766;SDS011;15921;52.034;20.650;2022-08-25T00:03:47;19.55;;;4.25;;
28766;SDS011;15921;52.034;20.650;2022-08-25T00:06:13;18.33;;;4.18;;
28766;SDS011;15921;52.034;20.650;2022-08-25T00:08:40;19.00;;;4.50;;
28766;SDS011;15921;52.034;20.650;2022-08-25T00:11:25;13.65;;;4.18;;
28766;SDS011;15921;52.034;20.650;2022-08-25T00:13:54;15.38;;;4.10;;
28766;SDS011;15921;52.034;20.650;2022-08-25T00:16:23;17.67;;;4.18;;
28766;SDS011;15921;52.034;20.650;2022-08-25T00:18:52;18.27;;;4.07;;
28766;SDS011;15921;52.034;20.650;2022-08-25T00:21:20;18.90;;;3.92;;
28766;SDS011;15921;52.034;20.650;2022-08-25T00:23:46;18.13;;;4.00;;
28766;SDS011;15921;52.034;20.650;2022-08-25T00:26:13;20.25;;;3.40;;
28766;SDS011;15921;52.034;20.650;2022-08-25T00:28:40;12.35;;;3.90;;
28766;SDS011;15921;52.034;20.650;2022-08-25T00:31:10;15.85;;;3.70;;
28766;SDS011;15921;52.034;20.650;2022-08-25T00:33:39;17.48;;;4.28;;
28766;SDS011;15921;52.034;20.650;2022-08-25T00:36:05;14.13;;;4.03;;
28766;SDS011;15921;52.034;20.650;2022-08-25T00:38:31;15.18;;;3.85;;
28766;SDS011;15921;52.034;20.650;2022-08-25T00:40:57;13.77;;;3.95;;
28766;SDS011;15921;52.034;20.650;2022-08-25T00:46:14;21.48;;;4.05;;
28766;SDS011;15921;52.034;20.650;2022-08-25T00:51:10;20.85;;;4.10;;
28766;SDS011;15921;52.034;20.650;2022-08-25T00:53:40;14.95;;;3.83;;
28766;SDS011;15921;52.034;20.650;2022-08-25T00:56:08;15.90;;;3.95;;
28766;SDS011;15921;52.034;20.650;2022-08-25T00:58:35;16.85;;;4.45;;
28766;SDS011;15921;52.034;20.650;2022-08-25T01:01:01;16.45;;;4.88;;
28766;SDS011;15921;52.034;20.650;2022-08-25T01:03:28;17.33;;;4.43;;
28766;SDS011;15921;52.034;20.650;2022-08-25T01:05:57;15.50;;;4.47;;
28766;SDS011;15921;52.034;20.650;2022-08-25T01:08:25;24.98;;;4.85;;
28766;SDS011;15921;52.034;20.650;2022-08-25T01:10:53;14.95;;;4.40;;
28766;SDS011;15921;52.034;20.650;2022-08-25T01:13:43;14.95;;;4.10;;
28766;SDS011;15921;52.034;20.650;2022-08-25T01:16:09;24.58;;;4.38;;
28766;SDS011;15921;52.034;20.650;2022-08-25T01:18:50;15.85;;;4.25;;
28766;SDS011;15921;52.034;20.650;2022-08-25T01:21:22;16.80;;;4.60;;
28766;SDS011;15921;52.034;20.650;2022-08-25T01:23:49;19.13;;;4.90;;
28766;SDS011;15921;52.034;20.650;2022-08-25T01:26:27;21.48;;;4.72;;
28766;SDS011;15921;52.034;20.650;2022-08-25T01:28:55;19.85;;;5.40;;
28766;SDS011;15921;52.034;20.650;2022-08-25T01:31:41;16.00;;;4.97;;
28766;SDS011;15921;52.034;20.650;2022-08-25T01:34:07;13.88;;;4.43;;
28766;SDS011;15921;52.034;20.650;2022-08-25T01:36:36;18.75;;;4.55;;
28766;SDS011;15921;52.034;20.650;2022-08-25T01:39:03;19.02;;;4.97;;
28766;SDS011;15921;52.034;20.650;2022-08-25T01:43:58;12.40;;;4.75;;
28766;SDS011;15921;52.034;20.650;2022-08-25T01:46:25;20.85;;;5.00;;
28766;SDS011;15921;52.034;20.650;2022-08-25T01:48:51;21.23;;;5.15;;
28766;SDS011;15921;52.034;20.650;2022-08-25T01:51:18;15.50;;;4.68;;
28766;SDS011;15921;52.034;20.650;2022-08-25T01:53:47;22.17;;;5.18;;
28766;SDS011;15921;52.034;20.650;2022-08-25T01:56:15;23.92;;;4.90;;
28766;SDS011;15921;52.034;20.650;2022-08-25T01:58:44;18.08;;;5.53;;
28766;SDS011;15921;52.034;20.650;2022-08-25T02:01:15;16.75;;;4.82;;
28766;SDS011;15921;52.034;20.650;2022-08-25T02:03:47;16.02;;;4.60;;
28766;SDS011;15921;52.034;20.650;2022-08-25T02:06:15;19.45;;;4.85;;
28766;SDS011;15921;52.034;20.650;2022-08-25T02:08:53;19.10;;;4.70;;
28766;SDS011;15921;52.034;20.650;2022-08-25T02:11:22;13.70;;;4.93;;
28766;SDS011;15921;52.034;20.650;2022-08-25T02:13:50;20.63;;;5.53;;
28766;SDS011;15921;52.034;20.650;2022-08-25T02:16:23;19.80;;;5.15;;
28766;SDS011;15921;52.034;20.650;2022-08-25T02:18:52;18.25;;;5.32;;
28766;SDS011;15921;52.034;20.650;2022-08-25T02:21:19;15.98;;;5.05;;
28766;SDS011;15921;52.034;20.650;2022-08-25T02:23:46;21.58;;;5.63;;
28766;SDS011;15921;52.034;20.650;2022-08-25T02:26:12;26.60;;;6.43;;
28766;SDS011;15921;52.034;20.650;2022-08-25T02:28:43;21.10;;;4.97;;
28766;SDS011;15921;52.034;20.650;2022-08-25T02:31:12;14.93;;;5.18;;
28766;SDS011;15921;52.034;20.650;2022-08-25T02:33:39;15.82;;;4.75;;
28766;SDS011;15921;52.034;20.650;2022-08-25T02:36:04;18.15;;;5.00;;
28766;SDS011;15921;52.034;20.650;2022-08-25T02:38:31;14.88;;;5.25;;
28766;SDS011;15921;52.034;20.650;2022-08-25T02:40:58;18.25;;;4.65;;
28766;SDS011;15921;52.034;20.650;2022-08-25T02:43:25;13.00;;;4.70;;
28766;SDS011;15921;52.034;20.650;2022-08-25T02:45:52;17.27;;;4.93;;
28766;SDS011;15921;52.034;20.650;2022-08-25T02:48:19;16.02;;;5.32;;
28766;SDS011;15921;52.034;20.650;2022-08-25T02:50:49;10.15;;;4.63;;
28766;SDS011;15921;52.034;20.650;2022-08-25T02:53:17;14.85;;;4.78;;
28766;SDS011;15921;52.034;20.650;2022-08-25T02:55:44;18.60;;;5.20;;
28766;SDS011;15921;52.034;20.650;2022-08-25T02:58:11;18.10;;;4.97;;
28766;SDS011;15921;52.034;20.650;2022-08-25T03:00:38;15.07;;;4.40;;
28766;SDS011;15921;52.034;20.650;2022-08-25T03:03:04;14.43;;;5.05;;
28766;SDS011;15921;52.034;20.650;2022-08-25T03:05:30;10.55;;;4.32;;
28766;SDS011;15921;52.034;20.650;2022-08-25T03:07:57;12.10;;;4.38;;
28766;SDS011;15921;52.034;20.650;2022-08-25T03:10:23;13.30;;;4.75;;
28766;SDS011;15921;52.034;20.650;2022-08-25T03:12:48;11.90;;;4.88;;
28766;SDS011;15921;52.034;20.650;2022-08-25T03:15:15;18.00;;;4.45;;
28766;SDS011;15921;52.034;20.650;2022-08-25T03:17:45;11.30;;;4.75;;
28766;SDS011;15921;52.034;20.650;2022-08-25T03:20:13;10.27;;;4.93;;
28766;SDS011;15921;52.034;20.650;2022-08-25T03:22:39;19.40;;;5.10;;
28766;SDS011;15921;52.034;20.650;2022-08-25T03:25:07;14.88;;;4.50;;
28766;SDS011;15921;52.034;20.650;2022-08-25T03:27:52;16.73;;;4.88;;
28766;SDS011;15921;52.034;20.650;2022-08-25T03:30:18;15.57;;;4.13;;
28766;SDS011;15921;52.034;20.650;2022-08-25T03:32:44;19.02;;;5.68;;
28766;SDS011;15921;52.034;20.650;2022-08-25T03:35:11;13.73;;;5.05;;
28766;SDS011;15921;52.034;20.650;2022-08-25T03:37:37;12.73;;;5.03;;
28766;SDS011;15921;52.034;20.650;2022-08-25T03:40:04;11.68;;;4.93;;
28766;SDS011;15921;52.034;20.650;2022-08-25T03:42:33;17.55;;;4.63;;
28766;SDS011;15921;52.034;20.650;2022-08-25T03:45:01;14.43;;;5.68;;
28766;SDS011;15921;52.034;20.650;2022-08-25T03:47:28;14.43;;;5.35;;
28766;SDS011;15921;52.034;20.650;2022-08-25T03:49:55;12.40;;;4.93;;
28766;SDS011;15921;52.034;20.650;2022-08-25T03:52:22;17.20;;;5.22;;
28766;SDS011;15921;52.034;20.650;2022-08-25T03:54:47;11.90;;;4.65;;
28766;SDS011;15921;52.034;20.650;2022-08-25T03:57:13;16.90;;;5.30;;
28766;SDS011;15921;52.034;20.650;2022-08-25T03:59:39;10.73;;;4.40;;
28766;SDS011;15921;52.034;20.650;2022-08-25T04:02:05;11.43;;;4.15;;
28766;SDS011;15921;52.034;20.650;2022-08-25T04:04:31;15.52;;;5.28;;
28766;SDS011;15921;52.034;20.650;2022-08-25T04:06:57;14.18;;;5.50;;
28766;SDS011;15921;52.034;20.650;2022-08-25T04:09:23;15.27;;;5.70;;
28766;SDS011;15921;52.034;20.650;2022-08-25T04:11:49;15.15;;;4.90;;
28766;SDS011;15921;52.034;20.650;2022-08-25T04:14:16;12.35;;;5.32;;
28766;SDS011;15921;52.034;20.650;2022-08-25T04:16:42;18.33;;;5.32;;
28766;SDS011;15921;52.034;20.650;2022-08-25T04:19:09;16.95;;;5.40;;
28766;SDS011;15921;52.034;20.650;2022-08-25T04:21:36;20.80;;;5.85;;
28766;SDS011;15921;52.034;20.650;2022-08-25T04:24:03;15.90;;;5.65;;
28766;SDS011;15921;52.034;20.650;2022-08-25T04:26:31;16.23;;;5.43;;
28766;SDS011;15921;52.034;20.650;2022-08-25T04:29:00;20.30;;;5.13;;
28766;SDS011;15921;52.034;20.650;2022-08-25T04:31:27;13.23;;;4.97;;
28766;SDS011;15921;52.034;20.650;2022-08-25T04:33:54;16.83;;;5.07;;
28766;SDS011;15921;52.034;20.650;2022-08-25T04:36:20;19.33;;;5.60;;
28766;SDS011;15921;52.034;20.650;2022-08-25T04:38:46;15.85;;;5.10;;
28766;SDS011;15921;52.034;20.650;2022-08-25T04:41:14;11.82;;;4.60;;
28766;SDS011;15921;52.034;20.650;2022-08-25T04:43:42;19.70;;;5.93;;
28766;SDS011;15921;52.034;20.650;2022-08-25T04:46:18;24.83;;;6.45;;
28766;SDS011;15921;52.034;20.650;2022-08-25T04:48:49;17.40;;;6.70;;
28766;SDS011;15921;52.034;20.650;2022-08-25T04:51:18;22.25;;;6.85;;
28766;SDS011;15921;52.034;20.650;2022-08-25T04:53:49;23.40;;;5.90;;
28766;SDS011;15921;52.034;20.650;2022-08-25T04:56:15;18.27;;;6.43;;
28766;SDS011;15921;52.034;20.650;2022-08-25T04:58:42;16.83;;;6.53;;
28766;SDS011;15921;52.034;20.650;2022-08-25T05:01:11;16.48;;;5.95;;
28766;SDS011;15921;52.034;20.650;2022-08-25T05:03:41;21.50;;;6.25;;
28766;SDS011;15921;52.034;20.650;2022-08-25T05:06:08;19.83;;;6.18;;
28766;SDS011;15921;52.034;20.650;2022-08-25T05:08:34;23.33;;;6.43;;
28766;SDS011;15921;52.034;20.650;2022-08-25T05:11:06;16.63;;;5.90;;
28766;SDS011;15921;52.034;20.650;2022-08-25T05:13:33;13.20;;;5.57;;
28766;SDS011;15921;52.034;20.650;2022-08-25T05:16:00;19.67;;;5.32;;
28766;SDS011;15921;52.034;20.650;2022-08-25T05:18:27;18.75;;;5.88;;
28766;SDS011;15921;52.034;20.650;2022-08-25T05:20:54;19.63;;;6.10;;
28766;SDS011;15921;52.034;20.650;2022-08-25T05:23:21;20.02;;;6.22;;
28766;SDS011;15921;52.034;20.650;2022-08-25T05:25:48;25.52;;;6.65;;
28766;SDS011;15921;52.034;20.650;2022-08-25T05:28:16;20.65;;;6.18;;
28766;SDS011;15921;52.034;20.650;2022-08-25T05:30:42;20.30;;;6.03;;
28766;SDS011;15921;52.034;20.650;2022-08-25T05:33:09;26.42;;;7.07;;
28766;SDS011;15921;52.034;20.650;2022-08-25T05:35:36;29.85;;;7.00;;
28766;SDS011;15921;52.034;20.650;2022-08-25T05:38:03;21.35;;;6.60;;
28766;SDS011;15921;52.034;20.650;2022-08-25T05:40:29;28.20;;;7.13;;
28766;SDS011;15921;52.034;20.650;2022-08-25T05:42:56;25.35;;;7.30;;
28766;SDS011;15921;52.034;20.650;2022-08-25T05:45:22;23.23;;;7.40;;
28766;SDS011;15921;52.034;20.650;2022-08-25T05:47:48;28.77;;;6.75;;
28766;SDS011;15921;52.034;20.650;2022-08-25T05:50:14;26.42;;;6.60;;
28766;SDS011;15921;52.034;20.650;2022-08-25T05:52:41;25.80;;;6.55;;
28766;SDS011;15921;52.034;20.650;2022-08-25T05:55:07;24.45;;;6.97;;
28766;SDS011;15921;52.034;20.650;2022-08-25T05:57:33;19.55;;;7.20;;
28766;SDS011;15921;52.034;20.650;2022-08-25T05:59:59;23.92;;;7.53;;
28766;SDS011;15921;52.034;20.650;2022-08-25T06:02:26;25.33;;;7.18;;
28766;SDS011;15921;52.034;20.650;2022-08-25T06:05:17;22.90;;;6.60;;
28766;SDS011;15921;52.034;20.650;2022-08-25T06:07:46;31.40;;;7.70;;
28766;SDS011;15921;52.034;20.650;2022-08-25T06:10:13;21.27;;;6.47;;
28766;SDS011;15921;52.034;20.650;2022-08-25T06:12:40;24.33;;;6.82;;
28766;SDS011;15921;52.034;20.650;2022-08-25T06:15:09;30.92;;;7.38;;
28766;SDS011;15921;52.034;20.650;2022-08-25T06:17:36;20.80;;;7.75;;
28766;SDS011;15921;52.034;20.650;2022-08-25T06:20:10;20.77;;;6.60;;
28766;SDS011;15921;52.034;20.650;2022-08-25T06:22:38;25.77;;;7.18;;
28766;SDS011;15921;52.034;20.650;2022-08-25T06:25:05;28.58;;;7.90;;
28766;SDS011;15921;52.034;20.650;2022-08-25T06:27:33;35.60;;;8.00;;
28766;SDS011;15921;52.034;20.650;2022-08-25T06:29:59;31.70;;;7.40;;
28766;SDS011;15921;52.034;20.650;2022-08-25T06:32:31;24.23;;;7.30;;
28766;SDS011;15921;52.034;20.650;2022-08-25T06:35:00;18.40;;;6.57;;
28766;SDS011;15921;52.034;20.650;2022-08-25T06:37:26;29.40;;;6.63;;
28766;SDS011;15921;52.034;20.650;2022-08-25T06:39:52;26.00;;;6.50;;
28766;SDS011;15921;52.034;20.650;2022-08-25T06:42:18;29.15;;;6.47;;
28766;SDS011;15921;52.034;20.650;2022-08-25T06:44:44;18.20;;;6.65;;
28766;SDS011;15921;52.034;20.650;2022-08-25T06:47:09;24.30;;;6.75;;
28766;SDS011;15921;52.034;20.650;2022-08-25T06:49:35;23.15;;;6.90;;
28766;SDS011;15921;52.034;20.650;2022-08-25T06:52:01;31.98;;;8.10;;
28766;SDS011;15921;52.034;20.650;2022-08-25T06:54:28;25.77;;;6.93;;
28766;SDS011;15921;52.034;20.650;2022-08-25T06:56:53;25.05;;;7.50;;
28766;SDS011;15921;52.034;20.650;2022-08-25T06:59:19;26.33;;;7.00;;
28766;SDS011;15921;52.034;20.650;2022-08-25T07:01:45;22.77;;;7.15;;
28766;SDS011;15921;52.034;20.650;2022-08-25T07:04:11;24.55;;;7.57;;
28766;SDS011;15921;52.034;20.650;2022-08-25T07:06:37;30.83;;;8.25;;
28766;SDS011;15921;52.034;20.650;2022-08-25T07:09:03;31.65;;;8.45;;
28766;SDS011;15921;52.034;20.650;2022-08-25T07:11:33;26.35;;;7.68;;
28766;SDS011;15921;52.034;20.650;2022-08-25T07:14:03;30.58;;;8.32;;
28766;SDS011;15921;52.034;20.650;2022-08-25T07:16:30;32.42;;;8.00;;
28766;SDS011;15921;52.034;20.650;2022-08-25T07:18:56;30.65;;;7.30;;
28766;SDS011;15921;52.034;20.650;2022-08-25T07:21:23;27.17;;;7.68;;
28766;SDS011;15921;52.034;20.650;2022-08-25T07:23:50;23.92;;;7.38;;
28766;SDS011;15921;52.034;20.650;2022-08-25T07:26:20;22.27;;;7.50;;
28766;SDS011;15921;52.034;20.650;2022-08-25T07:28:49;29.15;;;7.80;;
28766;SDS011;15921;52.034;20.650;2022-08-25T07:31:15;32.88;;;7.97;;
28766;SDS011;15921;52.034;20.650;2022-08-25T07:33:41;46.17;;;8.55;;
28766;SDS011;15921;52.034;20.650;2022-08-25T07:36:28;29.15;;;8.23;;
28766;SDS011;15921;52.034;20.650;2022-08-25T07:38:57;29.55;;;8.38;;
28766;SDS011;15921;52.034;20.650;2022-08-25T07:41:23;25.15;;;7.53;;
28766;SDS011;15921;52.034;20.650;2022-08-25T07:43:50;24.35;;;7.97;;
28766;SDS011;15921;52.034;20.650;2022-08-25T07:46:16;32.72;;;7.93;;
28766;SDS011;15921;52.034;20.650;2022-08-25T07:48:42;34.17;;;8.23;;
28766;SDS011;15921;52.034;20.650;2022-08-25T07:51:09;28.73;;;7.30;;
28766;SDS011;15921;52.034;20.650;2022-08-25T07:53:38;22.25;;;7.35;;
28766;SDS011;15921;52.034;20.650;2022-08-25T07:56:14;28.80;;;7.07;;
28766;SDS011;15921;52.034;20.650;2022-08-25T07:58:41;29.67;;;7.60;;
28766;SDS011;15921;52.034;20.650;2022-08-25T08:01:12;23.95;;;8.27;;
28766;SDS011;15921;52.034;20.650;2022-08-25T08:03:45;35.83;;;7.95;;
28766;SDS011;15921;52.034;20.650;2022-08-25T08:06:11;27.98;;;7.55;;
28766;SDS011;15921;52.034;20.650;2022-08-25T08:08:40;23.52;;;7.88;;
28766;SDS011;15921;52.034;20.650;2022-08-25T08:13:44;26.13;;;7.15;;
28766;SDS011;15921;52.034;20.650;2022-08-25T08:16:11;25.77;;;7.47;;
28766;SDS011;15921;52.034;20.650;2022-08-25T08:18:39;29.17;;;7.60;;
28766;SDS011;15921;52.034;20.650;2022-08-25T08:21:17;30.33;;;7.53;;
28766;SDS011;15921;52.034;20.650;2022-08-25T08:23:51;27.85;;;8.23;;
28766;SDS011;15921;52.034;20.650;2022-08-25T08:26:18;31.42;;;7.60;;
28766;SDS011;15921;52.034;20.650;2022-08-25T08:28:44;32.25;;;8.50;;
28766;SDS011;15921;52.034;20.650;2022-08-25T08:31:10;38.63;;;7.25;;
28766;SDS011;15921;52.034;20.650;2022-08-25T08:33:36;36.78;;;8.40;;
28766;SDS011;15921;52.034;20.650;2022-08-25T08:36:06;31.17;;;8.18;;
28766;SDS011;15921;52.034;20.650;2022-08-25T08:38:35;29.83;;;7.93;;
28766;SDS011;15921;52.034;20.650;2022-08-25T08:47:03;32.40;;;7.50;;
28766;SDS011;15921;52.034;20.650;2022-08-25T08:49:32;25.63;;;7.50;;
28766;SDS011;15921;52.034;20.650;2022-08-25T08:52:03;41.15;;;8.10;;
28766;SDS011;15921;52.034;20.650;2022-08-25T08:54:31;29.95;;;8.43;;
28766;SDS011;15921;52.034;20.650;2022-08-25T08:57:19;24.30;;;8.63;;
28766;SDS011;15921;52.034;20.650;2022-08-25T08:59:59;31.40;;;7.70;;
28766;SDS011;15921;52.034;20.650;2022-08-25T09:02:33;31.20;;;7.28;;
28766;SDS011;15921;52.034;20.650;2022-08-25T09:05:08;23.58;;;6.85;;
28766;SDS011;15921;52.034;20.650;2022-08-25T09:07:39;30.05;;;7.22;;
28766;SDS011;15921;52.034;20.650;2022-08-25T09:10:09;27.88;;;6.93;;
28766;SDS011;15921;52.034;20.650;2022-08-25T09:15:50;39.28;;;8.80;;
28766;SDS011;15921;52.034;20.650;2022-08-25T09:22:13;32.72;;;6.93;;
28766;SDS011;15921;52.034;20.650;2022-08-25T09:27:35;33.92;;;7.97;;
28766;SDS011;15921;52.034;20.650;2022-08-25T09:32:34;28.38;;;7.55;;
28766;SDS011;15921;52.034;20.650;2022-08-25T09:35:13;30.08;;;6.80;;
28766;SDS011;15921;52.034;20.650;2022-08-25T09:37:57;20.55;;;7.53;;
28766;SDS011;15921;52.034;20.650;2022-08-25T09:40:25;27.75;;;7.28;;
28766;SDS011;15921;52.034;20.650;2022-08-25T09:42:54;18.77;;;6.13;;
28766;SDS011;15921;52.034;20.650;2022-08-25T09:45:41;30.45;;;7.50;;
28766;SDS011;15921;52.034;20.650;2022-08-25T09:48:28;27.50;;;6.70;;
28766;SDS011;15921;52.034;20.650;2022-08-25T09:50:59;31.15;;;6.57;;
28766;SDS011;15921;52.034;20.650;2022-08-25T09:53:34;26.80;;;6.28;;
28766;SDS011;15921;52.034;20.650;2022-08-25T09:56:03;33.47;;;7.25;;
28766;SDS011;15921;52.034;20.650;2022-08-25T09:58:31;22.43;;;6.70;;
28766;SDS011;15921;52.034;20.650;2022-08-25T10:04:00;19.35;;;5.95;;
28766;SDS011;15921;52.034;20.650;2022-08-25T10:06:24;35.65;;;6.93;;
28766;SDS011;15921;52.034;20.650;2022-08-25T10:08:55;23.27;;;5.43;;
28766;SDS011;15921;52.034;20.650;2022-08-25T10:14:21;26.92;;;7.07;;
28766;SDS011;15921;52.034;20.650;2022-08-25T10:16:53;26.02;;;7.38;;
28766;SDS011;15921;52.034;20.650;2022-08-25T10:20:34;32.65;;;8.00;;
28766;SDS011;15921;52.034;20.650;2022-08-25T10:22:35;28.05;;;7.22;;
28766;SDS011;15921;52.034;20.650;2022-08-25T10:25:03;23.55;;;7.45;;
28766;SDS011;15921;52.034;20.650;2022-08-25T10:30:35;24.73;;;7.13;;
28766;SDS011;15921;52.034;20.650;2022-08-25T10:33:20;21.63;;;6.30;;
28766;SDS011;15921;52.034;20.650;2022-08-25T10:38:41;34.63;;;8.23;;
28766;SDS011;15921;52.034;20.650;2022-08-25T10:50:04;28.58;;;6.40;;
28766;SDS011;15921;52.034;20.650;2022-08-25T11:01:28;28.98;;;7.30;;
28766;SDS011;15921;52.034;20.650;2022-08-25T11:04:03;19.85;;;6.72;;
28766;SDS011;15921;52.034;20.650;2022-08-25T11:06:39;27.60;;;5.60;;
28766;SDS011;15921;52.034;20.650;2022-08-25T11:09:17;18.90;;;4.90;;
28766;SDS011;15921;52.034;20.650;2022-08-25T11:14:20;20.25;;;5.22;;
28766;SDS011;15921;52.034;20.650;2022-08-25T11:19:31;9.48;;;3.40;;
28766;SDS011;15921;52.034;20.650;2022-08-25T11:22:11;12.43;;;3.45;;
28766;SDS011;15921;52.034;20.650;2022-08-25T11:30:24;15.05;;;3.63;;
28766;SDS011;15921;52.034;20.650;2022-08-25T11:32:50;12.00;;;3.50;;
28766;SDS011;15921;52.034;20.650;2022-08-25T11:35:18;14.35;;;3.03;;
28766;SDS011;15921;52.034;20.650;2022-08-25T11:38:08;11.20;;;3.22;;
28766;SDS011;15921;52.034;20.650;2022-08-25T11:43:57;10.18;;;2.78;;
28766;SDS011;15921;52.034;20.650;2022-08-25T11:46:36;15.88;;;3.25;;
28766;SDS011;15921;52.034;20.650;2022-08-25T11:51:50;8.70;;;2.90;;
28766;SDS011;15921;52.034;20.650;2022-08-25T11:54:26;5.22;;;2.75;;
28766;SDS011;15921;52.034;20.650;2022-08-25T11:57:20;8.77;;;2.97;;
28766;SDS011;15921;52.034;20.650;2022-08-25T12:05:10;15.52;;;3.35;;
28766;SDS011;15921;52.034;20.650;2022-08-25T12:08:03;14.30;;;4.20;;
28766;SDS011;15921;52.034;20.650;2022-08-25T12:11:01;9.02;;;3.20;;
28766;SDS011;15921;52.034;20.650;2022-08-25T12:16:31;6.65;;;3.10;;
28766;SDS011;15921;52.034;20.650;2022-08-25T12:26:59;13.20;;;3.55;;
28766;SDS011;15921;52.034;20.650;2022-08-25T12:29:39;6.22;;;3.08;;
28766;SDS011;15921;52.034;20.650;2022-08-25T12:37:27;9.32;;;2.88;;
28766;SDS011;15921;52.034;20.650;2022-08-25T12:39:56;17.30;;;3.35;;
28766;SDS011;15921;52.034;20.650;2022-08-25T12:42:33;13.93;;;3.70;;
28766;SDS011;15921;52.034;20.650;2022-08-25T12:47:48;9.77;;;3.67;;
28766;SDS011;15921;52.034;20.650;2022-08-25T12:56:05;20.30;;;3.40;;
28766;SDS011;15921;52.034;20.650;2022-08-25T12:58:36;11.05;;;2.75;;
28766;SDS011;15921;52.034;20.650;2022-08-25T13:06:56;6.28;;;2.85;;
28766;SDS011;15921;52.034;20.650;2022-08-25T13:15:24;6.63;;;2.75;;
28766;SDS011;15921;52.034;20.650;2022-08-25T13:20:47;8.23;;;3.03;;
28766;SDS011;15921;52.034;20.650;2022-08-25T13:23:24;12.35;;;2.92;;
28766;SDS011;15921;52.034;20.650;2022-08-25T13:25:52;7.53;;;2.85;;
28766;SDS011;15921;52.034;20.650;2022-08-25T13:28:20;8.25;;;3.03;;
28766;SDS011;15921;52.034;20.650;2022-08-25T13:31:19;8.27;;;2.58;;
28766;SDS011;15921;52.034;20.650;2022-08-25T13:34:05;5.22;;;2.53;;
28766;SDS011;15921;52.034;20.650;2022-08-25T13:36:43;14.55;;;2.95;;
28766;SDS011;15921;52.034;20.650;2022-08-25T13:39:28;10.82;;;3.40;;
28766;SDS011;15921;52.034;20.650;2022-08-25T13:41:57;9.18;;;2.90;;
28766;SDS011;15921;52.034;20.650;2022-08-25T13:44:25;11.57;;;3.13;;
28766;SDS011;15921;52.034;20.650;2022-08-25T13:47:13;9.88;;;2.92;;
28766;SDS011;15921;52.034;20.650;2022-08-25T13:49:42;12.18;;;2.72;;
28766;SDS011;15921;52.034;20.650;2022-08-25T13:55:05;7.50;;;3.30;;
28766;SDS011;15921;52.034;20.650;2022-08-25T13:57:31;5.00;;;2.50;;
28766;SDS011;15921;52.034;20.650;2022-08-25T14:00:05;7.45;;;2.63;;
28766;SDS011;15921;52.034;20.650;2022-08-25T14:02:44;11.77;;;3.30;;
28766;SDS011;15921;52.034;20.650;2022-08-25T14:05:12;10.32;;;2.97;;
28766;SDS011;15921;52.034;20.650;2022-08-25T14:07:51;15.10;;;3.45;;
28766;SDS011;15921;52.034;20.650;2022-08-25T14:13:12;9.37;;;3.10;;
28766;SDS011;15921;52.034;20.650;2022-08-25T14:15:38;11.18;;;2.60;;
28766;SDS011;15921;52.034;20.650;2022-08-25T14:18:19;9.20;;;3.15;;
28766;SDS011;15921;52.034;20.650;2022-08-25T14:20:50;6.95;;;2.88;;
28766;SDS011;15921;52.034;20.650;2022-08-25T14:23:19;10.52;;;2.90;;
28766;SDS011;15921;52.034;20.650;2022-08-25T14:25:48;12.40;;;2.95;;
28766;SDS011;15921;52.034;20.650;2022-08-25T14:28:16;9.23;;;2.75;;
28766;SDS011;15921;52.034;20.650;2022-08-25T14:30:45;11.23;;;3.17;;
28766;SDS011;15921;52.034;20.650;2022-08-25T14:33:14;11.93;;;3.40;;
28766;SDS011;15921;52.034;20.650;2022-08-25T14:35:42;12.23;;;2.95;;
28766;SDS011;15921;52.034;20.650;2022-08-25T14:38:12;9.85;;;2.85;;
28766;SDS011;15921;52.034;20.650;2022-08-25T14:40:39;12.13;;;3.20;;
28766;SDS011;15921;52.034;20.650;2022-08-25T14:43:05;8.73;;;3.20;;
28766;SDS011;15921;52.034;20.650;2022-08-25T14:45:32;9.85;;;2.83;;
28766;SDS011;15921;52.034;20.650;2022-08-25T14:48:01;6.32;;;2.88;;
28766;SDS011;15921;52.034;20.650;2022-08-25T14:50:33;10.73;;;3.30;;
28766;SDS011;15921;52.034;20.650;2022-08-25T14:53:00;6.57;;;2.50;;
28766;SDS011;15921;52.034;20.650;2022-08-25T14:55:26;9.50;;;2.90;;
28766;SDS011;15921;52.034;20.650;2022-08-25T14:57:52;4.93;;;2.70;;
28766;SDS011;15921;52.034;20.650;2022-08-25T15:00:18;12.40;;;2.85;;
28766;SDS011;15921;52.034;20.650;2022-08-25T15:02:43;5.72;;;3.08;;
28766;SDS011;15921;52.034;20.650;2022-08-25T15:05:14;11.23;;;3.17;;
28766;SDS011;15921;52.034;20.650;2022-08-25T15:07:41;9.00;;;2.90;;
28766;SDS011;15921;52.034;20.650;2022-08-25T15:10:25;13.20;;;3.30;;
28766;SDS011;15921;52.034;20.650;2022-08-25T15:12:51;9.80;;;2.78;;
28766;SDS011;15921;52.034;20.650;2022-08-25T15:15:17;10.15;;;2.70;;
28766;SDS011;15921;52.034;20.650;2022-08-25T15:17:43;6.93;;;2.67;;
28766;SDS011;15921;52.034;20.650;2022-08-25T15:20:11;10.50;;;2.75;;
28766;SDS011;15921;52.034;20.650;2022-08-25T15:22:37;13.48;;;3.58;;
28766;SDS011;15921;52.034;20.650;2022-08-25T15:25:03;9.60;;;2.70;;
28766;SDS011;15921;52.034;20.650;2022-08-25T15:27:30;7.18;;;3.00;;
28766;SDS011;15921;52.034;20.650;2022-08-25T15:29:56;7.75;;;3.33;;
28766;SDS011;15921;52.034;20.650;2022-08-25T15:32:22;6.72;;;2.90;;
28766;SDS011;15921;52.034;20.650;2022-08-25T15:34:49;5.30;;;2.97;;
28766;SDS011;15921;52.034;20.650;2022-08-25T15:37:15;9.70;;;2.78;;
28766;SDS011;15921;52.034;20.650;2022-08-25T15:39:42;7.75;;;2.70;;
28766;SDS011;15921;52.034;20.650;2022-08-25T15:42:10;10.32;;;2.53;;
28766;SDS011;15921;52.034;20.650;2022-08-25T15:44:37;9.52;;;2.50;;
28766;SDS011;15921;52.034;20.650;2022-08-25T15:47:03;7.03;;;2.95;;
28766;SDS011;15921;52.034;20.650;2022-08-25T15:49:29;8.30;;;3.03;;
28766;SDS011;15921;52.034;20.650;2022-08-25T15:51:55;6.18;;;2.53;;
28766;SDS011;15921;52.034;20.650;2022-08-25T15:54:21;9.43;;;2.80;;
28766;SDS011;15921;52.034;20.650;2022-08-25T15:56:49;8.98;;;2.50;;
28766;SDS011;15921;52.034;20.650;2022-08-25T15:59:15;11.10;;;3.03;;
28766;SDS011;15921;52.034;20.650;2022-08-25T16:01:41;7.38;;;2.65;;
28766;SDS011;15921;52.034;20.650;2022-08-25T16:04:08;5.28;;;2.25;;
28766;SDS011;15921;52.034;20.650;2022-08-25T16:06:34;4.60;;;2.50;;
28766;SDS011;15921;52.034;20.650;2022-08-25T16:09:00;7.93;;;2.50;;
28766;SDS011;15921;52.034;20.650;2022-08-25T16:11:28;7.15;;;2.72;;
28766;SDS011;15921;52.034;20.650;2022-08-25T16:13:55;6.20;;;2.58;;
28766;SDS011;15921;52.034;20.650;2022-08-25T16:16:21;7.47;;;2.53;;
28766;SDS011;15921;52.034;20.650;2022-08-25T16:18:49;6.20;;;2.47;;
28766;SDS011;15921;52.034;20.650;2022-08-25T16:21:17;7.03;;;3.22;;
28766;SDS011;15921;52.034;20.650;2022-08-25T16:23:46;9.07;;;3.00;;
28766;SDS011;15921;52.034;20.650;2022-08-25T16:26:13;7.57;;;3.42;;
28766;SDS011;15921;52.034;20.650;2022-08-25T16:28:40;8.25;;;2.83;;
28766;SDS011;15921;52.034;20.650;2022-08-25T16:31:08;15.02;;;3.25;;
28766;SDS011;15921;52.034;20.650;2022-08-25T16:33:34;8.07;;;2.90;;
28766;SDS011;15921;52.034;20.650;2022-08-25T16:36:11;8.50;;;2.95;;
28766;SDS011;15921;52.034;20.650;2022-08-25T16:38:39;11.75;;;2.70;;
28766;SDS011;15921;52.034;20.650;2022-08-25T16:41:06;14.60;;;3.28;;
28766;SDS011;15921;52.034;20.650;2022-08-25T16:43:33;8.68;;;2.80;;